sensor_id;sensor_type;location;lat;lon;timestamp;pressure;altitude;pressure_sealevel;temperature;humidity
80699;BME280;70062;51.658;5.658;2023-12-22T00:02:28;100108.04;;;22.37;36.80
80699;BME280;70062;51.658;5.658;2023-12-22T00:05:03;100115.77;;;22.49;36.55
80699;BME280;70062;51.658;5.658;2023-12-22T00:07:37;100122.90;;;22.53;36.28
80699;BME280;70062;51.658;5.658;2023-12-22T00:10:11;100127.31;;;22.49;36.24
80699;BME280;70062;51.658;5.658;2023-12-22T00:12:48;100128.14;;;22.37;36.37
80699;BME280;70062;51.658;5.658;2023-12-22T00:15:38;100132.70;;;22.19;36.70
80699;BME280;70062;51.658;5.658;2023-12-22T00:18:24;100117.58;;;21.87;36.92
80699;BME280;70062;51.658;5.658;2023-12-22T00:20:59;100127.53;;;21.68;37.51
80699;BME280;70062;51.658;5.658;2023-12-22T00:23:32;100125.80;;;21.86;37.63
80699;BME280;70062;51.658;5.658;2023-12-22T00:26:07;100125.25;;;22.13;37.17
80699;BME280;70062;51.658;5.658;2023-12-22T00:28:52;100133.09;;;22.32;36.87
80699;BME280;70062;51.658;5.658;2023-12-22T00:31:28;100134.41;;;22.40;36.63
80699;BME280;70062;51.658;5.658;2023-12-22T00:34:02;100135.81;;;22.39;36.59
80699;BME280;70062;51.658;5.658;2023-12-22T00:36:41;100141.84;;;22.32;36.54
80699;BME280;70062;51.658;5.658;2023-12-22T00:39:20;100145.31;;;22.17;36.56
80699;BME280;70062;51.658;5.658;2023-12-22T00:42:09;100153.17;;;21.94;36.91
80699;BME280;70062;51.658;5.658;2023-12-22T00:44:47;100156.02;;;21.65;37.34
80699;BME280;70062;51.658;5.658;2023-12-22T00:47:28;100167.18;;;21.67;37.77
80699;BME280;70062;51.658;5.658;2023-12-22T00:50:03;100173.78;;;21.97;37.51
80699;BME280;70062;51.658;5.658;2023-12-22T00:52:38;100173.42;;;22.21;37.11
80699;BME280;70062;51.658;5.658;2023-12-22T00:55:12;100173.45;;;22.35;36.79
80699;BME280;70062;51.658;5.658;2023-12-22T00:58:03;100134.94;;;22.39;36.65
80699;BME280;70062;51.658;5.658;2023-12-22T01:00:43;100120.13;;;22.34;36.58
80699;BME280;70062;51.658;5.658;2023-12-22T01:03:18;100131.80;;;22.22;36.43
80699;BME280;70062;51.658;5.658;2023-12-22T01:05:55;100141.38;;;22.08;36.68
80699;BME280;70062;51.658;5.658;2023-12-22T01:08:29;100147.14;;;21.85;37.05
80699;BME280;70062;51.658;5.658;2023-12-22T01:11:04;100156.21;;;21.64;37.34
80699;BME280;70062;51.658;5.658;2023-12-22T01:13:38;100144.95;;;21.74;37.47
80699;BME280;70062;51.658;5.658;2023-12-22T01:16:16;100137.50;;;21.88;37.38
80699;BME280;70062;51.658;5.658;2023-12-22T01:18:50;100131.85;;;21.94;37.31
80699;BME280;70062;51.658;5.658;2023-12-22T01:21:25;100142.71;;;21.92;37.19
80699;BME280;70062;51.658;5.658;2023-12-22T01:24:00;100148.38;;;21.83;37.31
80699;BME280;70062;51.658;5.658;2023-12-22T01:26:38;100149.36;;;21.69;37.34
80699;BME280;70062;51.658;5.658;2023-12-22T01:29:22;100163.11;;;21.50;37.63
80699;BME280;70062;51.658;5.658;2023-12-22T01:31:56;100172.15;;;21.26;37.79
80699;BME280;70062;51.658;5.658;2023-12-22T01:34:29;100183.25;;;21.01;38.38
80699;BME280;70062;51.658;5.658;2023-12-22T01:37:06;100187.58;;;21.11;38.66
80699;BME280;70062;51.658;5.658;2023-12-22T01:39:52;100178.25;;;21.58;38.30
80699;BME280;70062;51.658;5.658;2023-12-22T01:42:26;100171.16;;;21.96;37.67
80699;BME280;70062;51.658;5.658;2023-12-22T01:44:59;100169.58;;;22.20;37.32
80699;BME280;70062;51.658;5.658;2023-12-22T01:47:33;100162.63;;;22.34;36.87
80699;BME280;70062;51.658;5.658;2023-12-22T01:50:07;100164.01;;;22.35;36.68
80699;BME280;70062;51.658;5.658;2023-12-22T01:52:54;100169.67;;;22.29;36.59
80699;BME280;70062;51.658;5.658;2023-12-22T01:55:27;100164.39;;;22.14;36.62
80699;BME280;70062;51.658;5.658;2023-12-22T01:58:01;100174.54;;;21.88;36.89
80699;BME280;70062;51.658;5.658;2023-12-22T02:00:36;100180.45;;;21.69;37.27
80699;BME280;70062;51.658;5.658;2023-12-22T02:03:10;100187.11;;;21.91;37.46
80699;BME280;70062;51.658;5.658;2023-12-22T02:05:51;100184.04;;;22.26;36.91
80699;BME280;70062;51.658;5.658;2023-12-22T02:08:34;100175.37;;;22.55;36.55
80699;BME280;70062;51.658;5.658;2023-12-22T02:11:16;100174.37;;;22.67;36.16
80699;BME280;70062;51.658;5.658;2023-12-22T02:13:50;100177.31;;;22.71;35.97
80699;BME280;70062;51.658;5.658;2023-12-22T02:16:43;100183.67;;;22.65;35.81
80699;BME280;70062;51.658;5.658;2023-12-22T02:19:43;100188.17;;;22.50;35.96
80699;BME280;70062;51.658;5.658;2023-12-22T02:22:17;100185.62;;;22.24;36.06
80699;BME280;70062;51.658;5.658;2023-12-22T02:24:53;100191.98;;;21.94;36.54
80699;BME280;70062;51.658;5.658;2023-12-22T02:33:22;100197.12;;;22.47;36.19
80699;BME280;70062;51.658;5.658;2023-12-22T02:35:58;100188.48;;;22.56;35.96
80699;BME280;70062;51.658;5.658;2023-12-22T02:38:37;100184.46;;;22.56;36.07
80699;BME280;70062;51.658;5.658;2023-12-22T02:41:07;100170.19;;;22.47;35.84
80699;BME280;70062;51.658;5.658;2023-12-22T02:43:43;100164.68;;;22.37;35.90
80699;BME280;70062;51.658;5.658;2023-12-22T02:46:17;100151.77;;;22.17;36.09
80699;BME280;70062;51.658;5.658;2023-12-22T02:48:51;100161.80;;;21.85;36.57
80699;BME280;70062;51.658;5.658;2023-12-22T02:51:25;100159.50;;;21.67;37.02
80699;BME280;70062;51.658;5.658;2023-12-22T02:53:59;100147.48;;;21.86;37.04
80699;BME280;70062;51.658;5.658;2023-12-22T02:56:42;100151.06;;;22.18;37.03
80699;BME280;70062;51.658;5.658;2023-12-22T02:59:23;100148.91;;;22.75;36.18
80699;BME280;70062;51.658;5.658;2023-12-22T03:02:06;100151.00;;;23.45;35.52
80699;BME280;70062;51.658;5.658;2023-12-22T03:04:42;100152.30;;;23.96;34.43
80699;BME280;70062;51.658;5.658;2023-12-22T03:07:19;100153.70;;;24.29;33.82
80699;BME280;70062;51.658;5.658;2023-12-22T03:09:59;100146.77;;;24.44;33.42
80699;BME280;70062;51.658;5.658;2023-12-22T03:12:32;100130.40;;;24.47;33.08
80699;BME280;70062;51.658;5.658;2023-12-22T03:15:07;100137.39;;;24.39;32.96
80699;BME280;70062;51.658;5.658;2023-12-22T03:17:41;100142.55;;;24.23;33.04
80699;BME280;70062;51.658;5.658;2023-12-22T03:20:15;100147.79;;;24.04;33.16
80699;BME280;70062;51.658;5.658;2023-12-22T03:23:02;100153.45;;;23.80;33.17
80699;BME280;70062;51.658;5.658;2023-12-22T03:25:43;100161.23;;;23.51;33.45
80699;BME280;70062;51.658;5.658;2023-12-22T03:28:17;100171.28;;;23.21;33.96
80699;BME280;70062;51.658;5.658;2023-12-22T03:30:48;100173.02;;;22.96;34.17
80699;BME280;70062;51.658;5.658;2023-12-22T03:33:23;100173.30;;;22.70;34.62
80699;BME280;70062;51.658;5.658;2023-12-22T03:35:57;100168.35;;;22.39;34.89
80699;BME280;70062;51.658;5.658;2023-12-22T03:38:31;100172.63;;;22.11;35.44
80699;BME280;70062;51.658;5.658;2023-12-22T03:41:02;100185.59;;;21.83;35.79
80699;BME280;70062;51.658;5.658;2023-12-22T03:43:37;100187.69;;;21.58;36.22
80699;BME280;70062;51.658;5.658;2023-12-22T03:46:53;100178.60;;;21.29;36.76
80699;BME280;70062;51.658;5.658;2023-12-22T03:49:54;100175.80;;;20.88;37.46
80699;BME280;70062;51.658;5.658;2023-12-22T03:53:01;100172.19;;;20.62;38.12
80699;BME280;70062;51.658;5.658;2023-12-22T03:55:37;100178.23;;;20.86;38.50
80699;BME280;70062;51.658;5.658;2023-12-22T03:58:12;100178.45;;;21.54;38.19
80699;BME280;70062;51.658;5.658;2023-12-22T04:00:47;100176.86;;;22.44;37.00
80699;BME280;70062;51.658;5.658;2023-12-22T04:03:26;100176.27;;;23.27;35.80
80699;BME280;70062;51.658;5.658;2023-12-22T04:06:05;100171.80;;;23.83;34.70
80699;BME280;70062;51.658;5.658;2023-12-22T04:08:39;100181.69;;;24.22;33.80
80699;BME280;70062;51.658;5.658;2023-12-22T04:11:14;100182.30;;;24.39;33.37
80699;BME280;70062;51.658;5.658;2023-12-22T04:13:49;100181.70;;;24.43;33.05
80699;BME280;70062;51.658;5.658;2023-12-22T04:16:23;100184.99;;;24.36;32.99
80699;BME280;70062;51.658;5.658;2023-12-22T04:19:04;100183.80;;;24.20;32.90
80699;BME280;70062;51.658;5.658;2023-12-22T04:21:40;100190.45;;;24.00;32.89
80699;BME280;70062;51.658;5.658;2023-12-22T04:24:15;100187.52;;;23.76;33.08
80699;BME280;70062;51.658;5.658;2023-12-22T04:26:50;100200.69;;;23.49;33.34
80699;BME280;70062;51.658;5.658;2023-12-22T04:29:25;100200.89;;;23.21;33.75
80699;BME280;70062;51.658;5.658;2023-12-22T04:31:57;100213.14;;;22.92;34.07
80699;BME280;70062;51.658;5.658;2023-12-22T04:34:34;100211.14;;;22.63;34.44
80699;BME280;70062;51.658;5.658;2023-12-22T04:37:09;100210.39;;;22.31;34.83
80699;BME280;70062;51.658;5.658;2023-12-22T04:39:44;100225.48;;;22.03;35.43
80699;BME280;70062;51.658;5.658;2023-12-22T04:42:16;100228.63;;;21.73;35.76
80699;BME280;70062;51.658;5.658;2023-12-22T04:45:21;100226.73;;;21.42;36.31
80699;BME280;70062;51.658;5.658;2023-12-22T04:47:56;100226.30;;;21.12;36.77
80699;BME280;70062;51.658;5.658;2023-12-22T04:50:31;100224.30;;;20.83;37.26
80699;BME280;70062;51.658;5.658;2023-12-22T04:53:09;100220.86;;;20.50;37.93
80699;BME280;70062;51.658;5.658;2023-12-22T04:55:44;100219.11;;;20.51;38.64
80699;BME280;70062;51.658;5.658;2023-12-22T04:58:28;100220.24;;;20.97;38.51
80699;BME280;70062;51.658;5.658;2023-12-22T05:01:05;100229.79;;;21.84;37.88
80699;BME280;70062;51.658;5.658;2023-12-22T05:03:57;100226.05;;;22.77;36.37
80699;BME280;70062;51.658;5.658;2023-12-22T05:06:34;100224.64;;;23.39;35.13
80699;BME280;70062;51.658;5.658;2023-12-22T05:09:09;100235.12;;;23.80;34.27
80699;BME280;70062;51.658;5.658;2023-12-22T05:11:44;100226.15;;;24.04;33.81
80699;BME280;70062;51.658;5.658;2023-12-22T05:14:19;100223.56;;;24.13;33.44
80699;BME280;70062;51.658;5.658;2023-12-22T05:16:54;100226.40;;;24.11;33.27
80699;BME280;70062;51.658;5.658;2023-12-22T05:19:29;100229.56;;;23.99;33.14
80699;BME280;70062;51.658;5.658;2023-12-22T05:22:05;100232.83;;;23.82;33.26
80699;BME280;70062;51.658;5.658;2023-12-22T05:24:42;100233.30;;;23.61;33.41
80699;BME280;70062;51.658;5.658;2023-12-22T05:27:18;100237.45;;;23.37;33.59
80699;BME280;70062;51.658;5.658;2023-12-22T05:29:52;100236.21;;;23.10;33.83
80699;BME280;70062;51.658;5.658;2023-12-22T05:32:30;100235.54;;;22.75;34.29
80699;BME280;70062;51.658;5.658;2023-12-22T05:35:01;100227.16;;;22.33;35.01
80699;BME280;70062;51.658;5.658;2023-12-22T05:37:37;100222.86;;;22.25;35.30
80699;BME280;70062;51.658;5.658;2023-12-22T05:40:12;100214.85;;;22.41;35.38
80699;BME280;70062;51.658;5.658;2023-12-22T05:42:47;100212.79;;;22.56;35.24
80699;BME280;70062;51.658;5.658;2023-12-22T05:45:26;100215.71;;;22.62;35.09
80699;BME280;70062;51.658;5.658;2023-12-22T05:47:57;100221.16;;;22.60;34.87
80699;BME280;70062;51.658;5.658;2023-12-22T05:50:32;100214.04;;;22.52;34.97
80699;BME280;70062;51.658;5.658;2023-12-22T05:53:08;100215.92;;;22.37;35.07
80699;BME280;70062;51.658;5.658;2023-12-22T05:55:52;100211.55;;;22.18;35.51
80699;BME280;70062;51.658;5.658;2023-12-22T05:58:30;100218.36;;;21.93;35.73
80699;BME280;70062;51.658;5.658;2023-12-22T06:01:07;100226.45;;;21.61;36.19
80699;BME280;70062;51.658;5.658;2023-12-22T06:03:51;100233.02;;;21.40;36.72
80699;BME280;70062;51.658;5.658;2023-12-22T06:06:25;100230.12;;;21.59;36.87
80699;BME280;70062;51.658;5.658;2023-12-22T06:09:00;100221.21;;;21.86;36.57
80699;BME280;70062;51.658;5.658;2023-12-22T06:11:34;100219.70;;;22.05;36.36
80699;BME280;70062;51.658;5.658;2023-12-22T06:14:05;100216.15;;;22.12;36.11
80699;BME280;70062;51.658;5.658;2023-12-22T06:16:40;100220.52;;;22.13;35.95
80699;BME280;70062;51.658;5.658;2023-12-22T06:19:15;100216.55;;;22.04;36.15
80699;BME280;70062;51.658;5.658;2023-12-22T06:21:50;100214.72;;;21.90;36.25
80699;BME280;70062;51.658;5.658;2023-12-22T06:24:26;100212.91;;;21.72;36.31
80699;BME280;70062;51.658;5.658;2023-12-22T06:27:07;100211.67;;;21.49;36.43
80699;BME280;70062;51.658;5.658;2023-12-22T06:29:46;100213.02;;;21.17;36.94
80699;BME280;70062;51.658;5.658;2023-12-22T06:32:17;100222.30;;;21.12;37.39
80699;BME280;70062;51.658;5.658;2023-12-22T06:34:48;100223.78;;;21.37;37.53
80699;BME280;70062;51.658;5.658;2023-12-22T06:37:22;100230.23;;;21.69;37.40
80699;BME280;70062;51.658;5.658;2023-12-22T06:40:11;100228.77;;;22.28;36.71
80699;BME280;70062;51.658;5.658;2023-12-22T06:43:22;100239.39;;;22.93;35.76
80699;BME280;70062;51.658;5.658;2023-12-22T06:46:04;100249.81;;;23.42;34.87
80699;BME280;70062;51.658;5.658;2023-12-22T06:48:45;100243.72;;;23.67;34.30
80699;BME280;70062;51.658;5.658;2023-12-22T06:51:21;100233.41;;;23.78;33.89
80699;BME280;70062;51.658;5.658;2023-12-22T06:53:51;100223.80;;;23.75;33.63
80699;BME280;70062;51.658;5.658;2023-12-22T06:56:24;100222.00;;;23.66;33.58
80699;BME280;70062;51.658;5.658;2023-12-22T06:58:57;100219.02;;;23.53;33.66
80699;BME280;70062;51.658;5.658;2023-12-22T07:01:35;100215.59;;;23.34;33.68
80699;BME280;70062;51.658;5.658;2023-12-22T07:04:11;100217.83;;;23.10;34.04
80699;BME280;70062;51.658;5.658;2023-12-22T07:06:56;100214.88;;;22.76;34.14
80699;BME280;70062;51.658;5.658;2023-12-22T07:09:29;100207.30;;;22.42;34.74
80699;BME280;70062;51.658;5.658;2023-12-22T07:12:08;100205.70;;;22.47;35.26
80699;BME280;70062;51.658;5.658;2023-12-22T07:14:40;100212.14;;;22.69;35.09
80699;BME280;70062;51.658;5.658;2023-12-22T07:17:14;100211.81;;;22.86;34.81
80699;BME280;70062;51.658;5.658;2023-12-22T07:19:41;100208.59;;;22.92;34.73
80699;BME280;70062;51.658;5.658;2023-12-22T07:22:14;100209.14;;;22.90;34.43
80699;BME280;70062;51.658;5.658;2023-12-22T07:24:50;100212.04;;;22.81;34.59
80699;BME280;70062;51.658;5.658;2023-12-22T07:27:31;100202.61;;;22.62;34.66
80699;BME280;70062;51.658;5.658;2023-12-22T07:30:02;100204.77;;;22.34;34.92
80699;BME280;70062;51.658;5.658;2023-12-22T07:32:56;100214.41;;;22.31;35.45
80699;BME280;70062;51.658;5.658;2023-12-22T07:35:28;100213.05;;;22.83;35.28
80699;BME280;70062;51.658;5.658;2023-12-22T07:38:08;100212.95;;;23.35;34.56
80699;BME280;70062;51.658;5.658;2023-12-22T07:40:49;100215.27;;;23.71;33.81
80699;BME280;70062;51.658;5.658;2023-12-22T07:43:15;100207.85;;;23.87;33.53
80699;BME280;70062;51.658;5.658;2023-12-22T07:45:46;100211.98;;;23.91;33.34
80699;BME280;70062;51.658;5.658;2023-12-22T07:48:35;100212.45;;;23.84;33.34
80699;BME280;70062;51.658;5.658;2023-12-22T07:51:12;100207.25;;;23.69;33.20
80699;BME280;70062;51.658;5.658;2023-12-22T07:53:42;100205.93;;;23.37;33.71
80699;BME280;70062;51.658;5.658;2023-12-22T07:56:08;100208.18;;;23.38;34.00
80699;BME280;70062;51.658;5.658;2023-12-22T07:58:35;100204.16;;;23.76;33.75
80699;BME280;70062;51.658;5.658;2023-12-22T08:01:02;100204.23;;;24.16;33.41
80699;BME280;70062;51.658;5.658;2023-12-22T08:03:28;100198.76;;;24.41;33.00
80699;BME280;70062;51.658;5.658;2023-12-22T08:05:53;100195.39;;;24.52;32.57
80699;BME280;70062;51.658;5.658;2023-12-22T08:08:19;100201.30;;;24.55;32.23
80699;BME280;70062;51.658;5.658;2023-12-22T08:10:44;100205.48;;;24.48;32.47
80699;BME280;70062;51.658;5.658;2023-12-22T08:13:10;100204.85;;;24.34;32.42
80699;BME280;70062;51.658;5.658;2023-12-22T08:15:35;100206.88;;;24.14;32.45
80699;BME280;70062;51.658;5.658;2023-12-22T08:18:00;100205.36;;;23.89;32.68
80699;BME280;70062;51.658;5.658;2023-12-22T08:20:26;100204.34;;;23.64;32.93
80699;BME280;70062;51.658;5.658;2023-12-22T08:22:51;100208.04;;;23.36;33.23
80699;BME280;70062;51.658;5.658;2023-12-22T08:25:17;100209.67;;;23.04;33.84
80699;BME280;70062;51.658;5.658;2023-12-22T08:27:45;100208.16;;;22.63;34.23
80699;BME280;70062;51.658;5.658;2023-12-22T08:30:11;100208.64;;;22.49;34.75
80699;BME280;70062;51.658;5.658;2023-12-22T08:32:37;100206.95;;;22.64;34.88
80699;BME280;70062;51.658;5.658;2023-12-22T08:35:03;100211.80;;;22.88;34.73
80699;BME280;70062;51.658;5.658;2023-12-22T08:37:37;100199.75;;;23.00;34.61
80699;BME280;70062;51.658;5.658;2023-12-22T08:40:08;100198.83;;;23.03;34.46
80699;BME280;70062;51.658;5.658;2023-12-22T08:42:34;100190.66;;;22.99;34.37
80699;BME280;70062;51.658;5.658;2023-12-22T08:44:59;100177.55;;;22.82;34.42
80699;BME280;70062;51.658;5.658;2023-12-22T08:47:25;100182.55;;;22.72;34.55
80699;BME280;70062;51.658;5.658;2023-12-22T08:49:51;100173.45;;;22.54;34.72
80699;BME280;70062;51.658;5.658;2023-12-22T08:52:17;100173.65;;;22.33;34.93
80699;BME280;70062;51.658;5.658;2023-12-22T08:54:45;100178.42;;;22.08;35.22
80699;BME280;70062;51.658;5.658;2023-12-22T08:57:16;100187.72;;;21.79;35.93
80699;BME280;70062;51.658;5.658;2023-12-22T08:59:57;100187.17;;;21.81;36.45
80699;BME280;70062;51.658;5.658;2023-12-22T09:02:30;100172.13;;;22.28;36.26
80699;BME280;70062;51.658;5.658;2023-12-22T09:04:56;100176.64;;;22.99;35.68
80699;BME280;70062;51.658;5.658;2023-12-22T09:07:26;100182.70;;;23.69;34.56
80699;BME280;70062;51.658;5.658;2023-12-22T09:09:59;100177.76;;;24.27;33.64
80699;BME280;70062;51.658;5.658;2023-12-22T09:12:25;100177.40;;;24.58;33.01
80699;BME280;70062;51.658;5.658;2023-12-22T09:14:51;100185.94;;;24.79;32.45
80699;BME280;70062;51.658;5.658;2023-12-22T09:17:16;100184.45;;;24.83;32.12
80699;BME280;70062;51.658;5.658;2023-12-22T09:19:42;100186.81;;;24.79;32.10
80699;BME280;70062;51.658;5.658;2023-12-22T09:22:08;100185.63;;;24.68;32.00
80699;BME280;70062;51.658;5.658;2023-12-22T09:24:34;100159.81;;;24.40;32.10
80699;BME280;70062;51.658;5.658;2023-12-22T09:26:59;100166.41;;;24.24;32.36
80699;BME280;70062;51.658;5.658;2023-12-22T09:29:29;100176.34;;;23.95;32.50
80699;BME280;70062;51.658;5.658;2023-12-22T09:31:55;100174.65;;;23.56;33.10
80699;BME280;70062;51.658;5.658;2023-12-22T09:34:21;100167.82;;;23.44;33.60
80699;BME280;70062;51.658;5.658;2023-12-22T09:36:46;100167.48;;;23.55;33.61
80699;BME280;70062;51.658;5.658;2023-12-22T09:39:12;100159.86;;;23.62;33.36
80699;BME280;70062;51.658;5.658;2023-12-22T09:41:44;100165.95;;;23.65;33.31
80699;BME280;70062;51.658;5.658;2023-12-22T09:44:13;100153.65;;;23.55;33.24
80699;BME280;70062;51.658;5.658;2023-12-22T09:46:40;100170.55;;;23.48;33.41
80699;BME280;70062;51.658;5.658;2023-12-22T09:49:06;100168.00;;;23.30;33.52
80699;BME280;70062;51.658;5.658;2023-12-22T09:51:33;100164.73;;;23.00;33.87
80699;BME280;70062;51.658;5.658;2023-12-22T09:54:01;100163.55;;;22.64;34.52
80699;BME280;70062;51.658;5.658;2023-12-22T09:56:48;100169.19;;;22.25;34.86
80699;BME280;70062;51.658;5.658;2023-12-22T09:59:17;100178.17;;;21.93;35.65
80699;BME280;70062;51.658;5.658;2023-12-22T10:01:54;100179.27;;;21.63;36.13
80699;BME280;70062;51.658;5.658;2023-12-22T10:04:21;100176.48;;;21.35;36.94
80699;BME280;70062;51.658;5.658;2023-12-22T10:06:52;100177.00;;;21.36;37.69
80699;BME280;70062;51.658;5.658;2023-12-22T10:09:19;100174.52;;;21.92;37.82
80699;BME280;70062;51.658;5.658;2023-12-22T10:11:54;100161.32;;;22.76;37.23
80699;BME280;70062;51.658;5.658;2023-12-22T10:14:22;100172.95;;;23.86;35.91
80699;BME280;70062;51.658;5.658;2023-12-22T10:16:57;100163.77;;;24.81;34.65
80699;BME280;70062;51.658;5.658;2023-12-22T10:19:23;100159.74;;;25.46;33.49
80699;BME280;70062;51.658;5.658;2023-12-22T10:21:48;100148.88;;;25.76;32.88
80699;BME280;70062;51.658;5.658;2023-12-22T10:27:02;100157.02;;;26.17;31.81
80699;BME280;70062;51.658;5.658;2023-12-22T10:29:28;100152.05;;;26.12;31.59
80699;BME280;70062;51.658;5.658;2023-12-22T10:31:54;100145.34;;;25.99;31.41
80699;BME280;70062;51.658;5.658;2023-12-22T10:34:20;100140.70;;;25.72;31.55
80699;BME280;70062;51.658;5.658;2023-12-22T10:36:45;100156.02;;;25.55;31.68
80699;BME280;70062;51.658;5.658;2023-12-22T10:39:11;100144.80;;;25.24;31.72
80699;BME280;70062;51.658;5.658;2023-12-22T10:41:37;100144.66;;;24.97;32.03
80699;BME280;70062;51.658;5.658;2023-12-22T10:44:02;100144.57;;;24.67;32.27
80699;BME280;70062;51.658;5.658;2023-12-22T10:46:30;100144.10;;;24.36;32.70
80699;BME280;70062;51.658;5.658;2023-12-22T10:48:58;100154.29;;;24.03;33.01
80699;BME280;70062;51.658;5.658;2023-12-22T10:51:24;100157.80;;;23.71;33.35
80699;BME280;70062;51.658;5.658;2023-12-22T10:53:51;100161.38;;;23.41;33.91
80699;BME280;70062;51.658;5.658;2023-12-22T10:56:17;100160.21;;;23.11;34.46
80699;BME280;70062;51.658;5.658;2023-12-22T10:58:42;100155.67;;;22.81;34.60
80699;BME280;70062;51.658;5.658;2023-12-22T11:01:09;100157.21;;;22.51;35.06
80699;BME280;70062;51.658;5.658;2023-12-22T11:03:39;100146.50;;;22.20;35.59
80699;BME280;70062;51.658;5.658;2023-12-22T11:06:06;100159.27;;;21.96;36.21
80699;BME280;70062;51.658;5.658;2023-12-22T11:08:36;100160.20;;;21.69;36.69
80699;BME280;70062;51.658;5.658;2023-12-22T11:11:13;100159.30;;;21.44;37.06
80699;BME280;70062;51.658;5.658;2023-12-22T11:13:43;100161.20;;;21.15;37.55
80699;BME280;70062;51.658;5.658;2023-12-22T11:16:09;100160.27;;;20.88;38.17
80699;BME280;70062;51.658;5.658;2023-12-22T11:18:35;100156.44;;;20.83;38.88
80699;BME280;70062;51.658;5.658;2023-12-22T11:21:05;100157.33;;;21.21;38.88
80699;BME280;70062;51.658;5.658;2023-12-22T11:23:32;100153.71;;;21.92;38.45
80699;BME280;70062;51.658;5.658;2023-12-22T11:25:59;100153.16;;;22.71;37.19
80699;BME280;70062;51.658;5.658;2023-12-22T11:35:02;100146.43;;;24.21;34.19
80699;BME280;70062;51.658;5.658;2023-12-22T11:37:30;100137.25;;;24.27;33.87
80699;BME280;70062;51.658;5.658;2023-12-22T11:39:56;100136.37;;;24.25;33.89
80699;BME280;70062;51.658;5.658;2023-12-22T11:42:24;100139.34;;;24.16;33.83
80699;BME280;70062;51.658;5.658;2023-12-22T11:44:52;100136.10;;;24.01;34.09
80699;BME280;70062;51.658;5.658;2023-12-22T11:47:22;100137.10;;;23.83;34.31
80699;BME280;70062;51.658;5.658;2023-12-22T11:49:48;100140.75;;;23.63;34.63
80699;BME280;70062;51.658;5.658;2023-12-22T11:52:25;100132.84;;;23.40;34.99
80699;BME280;70062;51.658;5.658;2023-12-22T11:54:54;100131.03;;;23.07;35.79
80699;BME280;70062;51.658;5.658;2023-12-22T12:00:07;100128.33;;;23.12;36.92
80699;BME280;70062;51.658;5.658;2023-12-22T12:02:34;100119.79;;;23.58;36.60
80699;BME280;70062;51.658;5.658;2023-12-22T12:05:01;100120.95;;;23.94;36.08
80699;BME280;70062;51.658;5.658;2023-12-22T12:07:45;100122.82;;;24.17;35.90
80699;BME280;70062;51.658;5.658;2023-12-22T12:13:05;100132.67;;;24.27;35.47
80699;BME280;70062;51.658;5.658;2023-12-22T12:15:33;100132.31;;;24.16;35.39
80699;BME280;70062;51.658;5.658;2023-12-22T12:17:59;100125.41;;;24.00;35.58
80699;BME280;70062;51.658;5.658;2023-12-22T12:20:25;100119.13;;;23.78;35.57
80699;BME280;70062;51.658;5.658;2023-12-22T12:22:51;100116.98;;;23.46;35.86
80699;BME280;70062;51.658;5.658;2023-12-22T12:25:16;100111.36;;;23.11;36.46
80699;BME280;70062;51.658;5.658;2023-12-22T12:27:42;100106.02;;;23.05;36.88
80699;BME280;70062;51.658;5.658;2023-12-22T12:30:11;100095.01;;;23.17;36.80
80699;BME280;70062;51.658;5.658;2023-12-22T12:32:37;100099.44;;;23.25;36.61
80699;BME280;70062;51.658;5.658;2023-12-22T12:35:04;100095.54;;;23.28;36.52
80699;BME280;70062;51.658;5.658;2023-12-22T12:37:29;100096.31;;;23.24;36.49
80699;BME280;70062;51.658;5.658;2023-12-22T12:39:58;100096.09;;;23.14;36.51
80699;BME280;70062;51.658;5.658;2023-12-22T12:42:28;100100.34;;;22.99;36.65
80699;BME280;70062;51.658;5.658;2023-12-22T12:44:55;100104.76;;;22.81;36.85
80699;BME280;70062;51.658;5.658;2023-12-22T12:47:21;100104.83;;;22.59;36.93
80699;BME280;70062;51.658;5.658;2023-12-22T12:49:46;100110.17;;;22.33;37.29
80699;BME280;70062;51.658;5.658;2023-12-22T12:52:13;100102.48;;;21.97;37.88
80699;BME280;70062;51.658;5.658;2023-12-22T12:54:39;100113.44;;;22.03;38.27
80699;BME280;70062;51.658;5.658;2023-12-22T12:57:05;100110.62;;;22.24;38.15
80699;BME280;70062;51.658;5.658;2023-12-22T12:59:30;100113.20;;;22.44;37.78
80699;BME280;70062;51.658;5.658;2023-12-22T13:01:56;100115.72;;;22.55;37.58
80699;BME280;70062;51.658;5.658;2023-12-22T13:04:23;100118.30;;;22.59;37.39
80699;BME280;70062;51.658;5.658;2023-12-22T13:06:49;100112.92;;;22.54;37.35
80699;BME280;70062;51.658;5.658;2023-12-22T13:09:15;100113.16;;;22.47;37.51
80699;BME280;70062;51.658;5.658;2023-12-22T13:11:42;100110.34;;;22.34;37.64
80699;BME280;70062;51.658;5.658;2023-12-22T13:14:12;100114.00;;;22.19;37.77
80699;BME280;70062;51.658;5.658;2023-12-22T13:16:47;100116.47;;;21.95;38.15
80699;BME280;70062;51.658;5.658;2023-12-22T13:19:12;100121.05;;;21.69;38.77
80699;BME280;70062;51.658;5.658;2023-12-22T13:21:38;100122.48;;;21.66;39.16
80699;BME280;70062;51.658;5.658;2023-12-22T13:24:14;100117.57;;;21.88;39.12
80699;BME280;70062;51.658;5.658;2023-12-22T13:26:41;100119.84;;;22.12;38.88
80699;BME280;70062;51.658;5.658;2023-12-22T13:29:08;100122.51;;;22.24;38.53
80699;BME280;70062;51.658;5.658;2023-12-22T13:31:37;100124.54;;;22.30;38.47
80699;BME280;70062;51.658;5.658;2023-12-22T13:34:10;100123.67;;;22.29;38.29
80699;BME280;70062;51.658;5.658;2023-12-22T13:36:36;100124.13;;;22.20;38.32
80699;BME280;70062;51.658;5.658;2023-12-22T13:39:06;100125.11;;;22.08;38.62
80699;BME280;70062;51.658;5.658;2023-12-22T13:41:38;100125.58;;;21.92;38.81
80699;BME280;70062;51.658;5.658;2023-12-22T13:44:06;100136.45;;;21.66;39.10